sensor_id;sensor_type;location;lat;lon;timestamp;temperature;humidity
61339;DHT22;47213;52.362;4.606;2022-08-19T00:01:48;21.20;99.90
61339;DHT22;47213;52.362;4.606;2022-08-19T00:11:47;21.00;99.90
61339;DHT22;47213;52.362;4.606;2022-08-19T00:21:47;20.90;99.90
61339;DHT22;47213;52.362;4.606;2022-08-19T00:31:47;21.00;99.90
61339;DHT22;47213;52.362;4.606;2022-08-19T00:36:47;21.10;99.90
61339;DHT22;47213;52.362;4.606;2022-08-19T00:46:48;21.00;99.90
61339;DHT22;47213;52.362;4.606;2022-08-19T00:56:47;20.90;99.90
61339;DHT22;47213;52.362;4.606;2022-08-19T01:01:47;20.70;99.90
61339;DHT22;47213;52.362;4.606;2022-08-19T01:06:47;20.60;99.90
61339;DHT22;47213;52.362;4.606;2022-08-19T01:16:47;20.70;99.90
61339;DHT22;47213;52.362;4.606;2022-08-19T01:21:50;20.60;99.90
61339;DHT22;47213;52.362;4.606;2022-08-19T01:36:47;20.50;99.90
61339;DHT22;47213;52.362;4.606;2022-08-19T01:41:47;20.40;99.90
61339;DHT22;47213;52.362;4.606;2022-08-19T01:46:48;20.50;99.90
61339;DHT22;47213;52.362;4.606;2022-08-19T01:56:47;20.60;99.90
61339;DHT22;47213;52.362;4.606;2022-08-19T02:01:47;20.30;99.90
61339;DHT22;47213;52.362;4.606;2022-08-19T02:06:47;20.50;99.90
61339;DHT22;47213;52.362;4.606;2022-08-19T02:11:47;20.30;99.90
61339;DHT22;47213;52.362;4.606;2022-08-19T02:16:47;20.10;99.90
61339;DHT22;47213;52.362;4.606;2022-08-19T02:21:47;20.00;99.90
61339;DHT22;47213;52.362;4.606;2022-08-19T02:36:47;20.20;99.90
61339;DHT22;47213;52.362;4.606;2022-08-19T02:51:47;20.00;99.90
61339;DHT22;47213;52.362;4.606;2022-08-19T03:01:47;19.90;99.90
61339;DHT22;47213;52.362;4.606;2022-08-19T03:11:48;20.10;99.90
61339;DHT22;47213;52.362;4.606;2022-08-19T03:16:48;20.30;99.90
61339;DHT22;47213;52.362;4.606;2022-08-19T03:31:48;20.20;99.90
61339;DHT22;47213;52.362;4.606;2022-08-19T03:41:48;20.10;99.90
61339;DHT22;47213;52.362;4.606;2022-08-19T03:46:50;20.20;99.90
61339;DHT22;47213;52.362;4.606;2022-08-19T03:56:49;20.10;99.90
61339;DHT22;47213;52.362;4.606;2022-08-19T04:01:48;20.00;99.90
61339;DHT22;47213;52.362;4.606;2022-08-19T04:06:48;19.80;99.90
61339;DHT22;47213;52.362;4.606;2022-08-19T04:11:50;19.70;99.90
61339;DHT22;47213;52.362;4.606;2022-08-19T04:16:48;19.80;99.90
61339;DHT22;47213;52.362;4.606;2022-08-19T04:21:49;19.90;99.90
61339;DHT22;47213;52.362;4.606;2022-08-19T04:26:48;20.00;99.90
61339;DHT22;47213;52.362;4.606;2022-08-19T04:41:48;20.10;99.90
61339;DHT22;47213;52.362;4.606;2022-08-19T04:46:49;19.90;99.90
61339;DHT22;47213;52.362;4.606;2022-08-19T05:01:48;20.00;99.90
61339;DHT22;47213;52.362;4.606;2022-08-19T05:16:48;20.10;99.90
61339;DHT22;47213;52.362;4.606;2022-08-19T05:26:48;20.20;99.90
61339;DHT22;47213;52.362;4.606;2022-08-19T05:31:48;20.30;99.90
61339;DHT22;47213;52.362;4.606;2022-08-19T05:36:48;20.20;99.90
61339;DHT22;47213;52.362;4.606;2022-08-19T05:56:48;20.10;99.90
61339;DHT22;47213;52.362;4.606;2022-08-19T06:01:49;20.20;99.90
61339;DHT22;47213;52.362;4.606;2022-08-19T06:06:49;20.30;99.90
61339;DHT22;47213;52.362;4.606;2022-08-19T06:11:50;20.50;99.90
61339;DHT22;47213;52.362;4.606;2022-08-19T06:21:48;20.40;99.90
61339;DHT22;47213;52.362;4.606;2022-08-19T06:26:48;20.50;99.90
61339;DHT22;47213;52.362;4.606;2022-08-19T06:31:49;20.60;99.90
61339;DHT22;47213;52.362;4.606;2022-08-19T06:41:49;20.50;99.90
61339;DHT22;47213;52.362;4.606;2022-08-19T06:46:48;20.60;99.90
61339;DHT22;47213;52.362;4.606;2022-08-19T06:51:48;20.70;99.90
61339;DHT22;47213;52.362;4.606;2022-08-19T06:56:48;20.80;99.90
61339;DHT22;47213;52.362;4.606;2022-08-19T07:01:49;20.90;99.90
61339;DHT22;47213;52.362;4.606;2022-08-19T07:06:48;21.00;99.90
61339;DHT22;47213;52.362;4.606;2022-08-19T07:11:50;21.30;99.90
61339;DHT22;47213;52.362;4.606;2022-08-19T07:16:49;21.40;99.90
61339;DHT22;47213;52.362;4.606;2022-08-19T07:21:49;21.70;99.90
61339;DHT22;47213;52.362;4.606;2022-08-19T07:26:48;22.00;99.90
61339;DHT22;47213;52.362;4.606;2022-08-19T07:31:49;22.30;99.90
61339;DHT22;47213;52.362;4.606;2022-08-19T07:41:48;22.20;99.90
61339;DHT22;47213;52.362;4.606;2022-08-19T07:46:50;22.10;99.90
61339;DHT22;47213;52.362;4.606;2022-08-19T07:51:51;22.20;99.90
61339;DHT22;47213;52.362;4.606;2022-08-19T07:56:48;22.30;99.90
61339;DHT22;47213;52.362;4.606;2022-08-19T08:01:49;22.50;99.90
61339;DHT22;47213;52.362;4.606;2022-08-19T08:06:48;22.70;99.90
61339;DHT22;47213;52.362;4.606;2022-08-19T08:11:52;22.60;99.90
61339;DHT22;47213;52.362;4.606;2022-08-19T08:16:49;22.80;99.90
61339;DHT22;47213;52.362;4.606;2022-08-19T08:21:49;22.70;99.90
61339;DHT22;47213;52.362;4.606;2022-08-19T08:26:48;22.80;99.90
61339;DHT22;47213;52.362;4.606;2022-08-19T08:31:48;22.70;99.90
61339;DHT22;47213;52.362;4.606;2022-08-19T08:46:51;23.20;99.90
61339;DHT22;47213;52.362;4.606;2022-08-19T08:51:51;23.50;99.90
61339;DHT22;47213;52.362;4.606;2022-08-19T08:56:49;23.70;99.90
61339;DHT22;47213;52.362;4.606;2022-08-19T09:06:51;23.90;99.90
61339;DHT22;47213;52.362;4.606;2022-08-19T09:21:48;23.80;99.90
61339;DHT22;47213;52.362;4.606;2022-08-19T09:31:49;24.00;99.90
61339;DHT22;47213;52.362;4.606;2022-08-19T09:36:49;24.10;99.90
61339;DHT22;47213;52.362;4.606;2022-08-19T09:41:49;24.40;99.90
61339;DHT22;47213;52.362;4.606;2022-08-19T09:46:49;24.90;99.40
61339;DHT22;47213;52.362;4.606;2022-08-19T09:56:49;24.80;99.50
61339;DHT22;47213;52.362;4.606;2022-08-19T10:01:49;24.90;99.30
61339;DHT22;47213;52.362;4.606;2022-08-19T10:06:49;24.50;97.40
61339;DHT22;47213;52.362;4.606;2022-08-19T10:11:49;24.10;99.20
61339;DHT22;47213;52.362;4.606;2022-08-19T10:16:49;23.90;99.90
61339;DHT22;47213;52.362;4.606;2022-08-19T10:21:49;24.20;99.90
61339;DHT22;47213;52.362;4.606;2022-08-19T10:26:49;24.60;99.00
61339;DHT22;47213;52.362;4.606;2022-08-19T10:31:49;24.70;98.40
61339;DHT22;47213;52.362;4.606;2022-08-19T10:36:49;25.00;99.30
61339;DHT22;47213;52.362;4.606;2022-08-19T10:41:49;25.30;96.70
61339;DHT22;47213;52.362;4.606;2022-08-19T10:46:49;26.10;96.70
61339;DHT22;47213;52.362;4.606;2022-08-19T10:51:49;26.30;87.80
61339;DHT22;47213;52.362;4.606;2022-08-19T11:01:49;26.90;74.40
61339;DHT22;47213;52.362;4.606;2022-08-19T11:16:49;27.20;74.10
61339;DHT22;47213;52.362;4.606;2022-08-19T11:21:49;26.80;71.60
61339;DHT22;47213;52.362;4.606;2022-08-19T11:26:50;27.50;68.40
61339;DHT22;47213;52.362;4.606;2022-08-19T11:31:49;28.30;68.40
61339;DHT22;47213;52.362;4.606;2022-08-19T11:41:49;27.40;60.40
61339;DHT22;47213;52.362;4.606;2022-08-19T11:46:49;26.20;71.70
61339;DHT22;47213;52.362;4.606;2022-08-19T11:51:49;25.80;75.40
61339;DHT22;47213;52.362;4.606;2022-08-19T11:56:49;25.70;75.60
61339;DHT22;47213;52.362;4.606;2022-08-19T12:01:49;26.40;73.70
61339;DHT22;47213;52.362;4.606;2022-08-19T12:06:49;26.90;71.30
61339;DHT22;47213;52.362;4.606;2022-08-19T12:16:49;27.30;68.60
61339;DHT22;47213;52.362;4.606;2022-08-19T12:21:49;27.00;67.40
61339;DHT22;47213;52.362;4.606;2022-08-19T12:31:49;27.50;68.30
61339;DHT22;47213;52.362;4.606;2022-08-19T12:41:49;27.40;63.20
61339;DHT22;47213;52.362;4.606;2022-08-19T12:51:49;27.10;67.60
61339;DHT22;47213;52.362;4.606;2022-08-19T12:56:49;27.50;67.70
61339;DHT22;47213;52.362;4.606;2022-08-19T13:01:49;27.10;68.30
61339;DHT22;47213;52.362;4.606;2022-08-19T13:06:49;27.20;68.30
61339;DHT22;47213;52.362;4.606;2022-08-19T13:11:49;27.10;67.40
61339;DHT22;47213;52.362;4.606;2022-08-19T13:16:49;27.00;66.10
61339;DHT22;47213;52.362;4.606;2022-08-19T13:31:49;27.10;66.90
61339;DHT22;47213;52.362;4.606;2022-08-19T13:36:49;26.70;68.90
61339;DHT22;47213;52.362;4.606;2022-08-19T13:41:49;26.60;70.60
61339;DHT22;47213;52.362;4.606;2022-08-19T13:46:49;26.80;70.70
61339;DHT22;47213;52.362;4.606;2022-08-19T13:51:49;26.70;71.10
61339;DHT22;47213;52.362;4.606;2022-08-19T14:01:49;26.40;71.00
61339;DHT22;47213;52.362;4.606;2022-08-19T14:06:49;26.30;75.40
61339;DHT22;47213;52.362;4.606;2022-08-19T14:11:49;25.90;75.40
61339;DHT22;47213;52.362;4.606;2022-08-19T14:16:49;26.20;76.70
61339;DHT22;47213;52.362;4.606;2022-08-19T14:21:49;26.40;77.00
61339;DHT22;47213;52.362;4.606;2022-08-19T14:26:49;26.30;77.00
61339;DHT22;47213;52.362;4.606;2022-08-19T14:31:49;26.50;74.60
61339;DHT22;47213;52.362;4.606;2022-08-19T14:36:49;26.60;76.20
61339;DHT22;47213;52.362;4.606;2022-08-19T14:41:49;26.70;76.20
61339;DHT22;47213;52.362;4.606;2022-08-19T14:46:49;26.60;73.90
61339;DHT22;47213;52.362;4.606;2022-08-19T14:56:49;26.40;75.00
61339;DHT22;47213;52.362;4.606;2022-08-19T15:01:49;26.30;75.00
61339;DHT22;47213;52.362;4.606;2022-08-19T15:11:49;26.50;77.40
61339;DHT22;47213;52.362;4.606;2022-08-19T15:16:49;26.00;81.40
61339;DHT22;47213;52.362;4.606;2022-08-19T15:21:49;25.90;77.30
61339;DHT22;47213;52.362;4.606;2022-08-19T15:26:49;25.70;77.30
61339;DHT22;47213;52.362;4.606;2022-08-19T15:36:51;25.50;80.50
61339;DHT22;47213;52.362;4.606;2022-08-19T15:41:50;25.60;82.10
61339;DHT22;47213;52.362;4.606;2022-08-19T15:46:50;25.20;83.80
61339;DHT22;47213;52.362;4.606;2022-08-19T15:51:50;25.30;86.10
61339;DHT22;47213;52.362;4.606;2022-08-19T15:56:50;25.10;86.10
61339;DHT22;47213;52.362;4.606;2022-08-19T16:01:50;25.20;89.90
61339;DHT22;47213;52.362;4.606;2022-08-19T16:06:51;25.10;88.80
61339;DHT22;47213;52.362;4.606;2022-08-19T16:11:50;25.20;88.80
61339;DHT22;47213;52.362;4.606;2022-08-19T16:21:50;25.30;84.50
61339;DHT22;47213;52.362;4.606;2022-08-19T16:31:50;25.50;81.40
61339;DHT22;47213;52.362;4.606;2022-08-19T16:36:50;25.40;81.30
61339;DHT22;47213;52.362;4.606;2022-08-19T16:41:50;25.20;81.30
61339;DHT22;47213;52.362;4.606;2022-08-19T16:46:50;24.90;86.10
61339;DHT22;47213;52.362;4.606;2022-08-19T16:51:50;24.50;88.80
61339;DHT22;47213;52.362;4.606;2022-08-19T16:56:50;24.40;92.50
61339;DHT22;47213;52.362;4.606;2022-08-19T17:01:50;24.10;94.80
61339;DHT22;47213;52.362;4.606;2022-08-19T17:06:50;24.00;98.00
61339;DHT22;47213;52.362;4.606;2022-08-19T17:16:50;23.90;98.60
61339;DHT22;47213;52.362;4.606;2022-08-19T17:21:50;24.30;98.60
61339;DHT22;47213;52.362;4.606;2022-08-19T17:26:50;24.20;96.80
61339;DHT22;47213;52.362;4.606;2022-08-19T17:31:50;24.40;94.10
61339;DHT22;47213;52.362;4.606;2022-08-19T17:36:50;24.30;95.90
61339;DHT22;47213;52.362;4.606;2022-08-19T17:41:50;24.50;95.90
61339;DHT22;47213;52.362;4.606;2022-08-19T17:46:50;24.40;93.80
61339;DHT22;47213;52.362;4.606;2022-08-19T17:51:50;24.20;95.90
61339;DHT22;47213;52.362;4.606;2022-08-19T17:56:50;24.10;95.90
61339;DHT22;47213;52.362;4.606;2022-08-19T18:06:50;23.90;97.20
61339;DHT22;47213;52.362;4.606;2022-08-19T18:11:51;24.00;97.70
61339;DHT22;47213;52.362;4.606;2022-08-19T18:21:50;23.80;97.60
61339;DHT22;47213;52.362;4.606;2022-08-19T18:31:50;23.90;99.90
61339;DHT22;47213;52.362;4.606;2022-08-19T18:56:50;23.80;99.90
61339;DHT22;47213;52.362;4.606;2022-08-19T19:06:50;23.60;99.90
61339;DHT22;47213;52.362;4.606;2022-08-19T19:11:56;23.70;99.90
61339;DHT22;47213;52.362;4.606;2022-08-19T19:16:50;23.60;99.90
61339;DHT22;47213;52.362;4.606;2022-08-19T19:21:50;23.70;99.90
61339;DHT22;47213;52.362;4.606;2022-08-19T19:26:51;23.80;99.90
61339;DHT22;47213;52.362;4.606;2022-08-19T19:31:50;23.60;96.60
61339;DHT22;47213;52.362;4.606;2022-08-19T19:36:50;23.50;98.90
61339;DHT22;47213;52.362;4.606;2022-08-19T19:41:50;23.70;96.30
61339;DHT22;47213;52.362;4.606;2022-08-19T19:46:50;23.60;96.20
61339;DHT22;47213;52.362;4.606;2022-08-19T19:56:50;23.30;99.40
61339;DHT22;47213;52.362;4.606;2022-08-19T20:01:50;23.10;99.90
61339;DHT22;47213;52.362;4.606;2022-08-19T20:11:51;23.40;99.90
61339;DHT22;47213;52.362;4.606;2022-08-19T20:16:51;23.50;99.90
61339;DHT22;47213;52.362;4.606;2022-08-19T20:21:50;23.70;99.90
61339;DHT22;47213;52.362;4.606;2022-08-19T20:31:50;23.90;99.90
61339;DHT22;47213;52.362;4.606;2022-08-19T20:56:50;23.80;99.90
61339;DHT22;47213;52.362;4.606;2022-08-19T21:16:50;23.70;99.90
61339;DHT22;47213;52.362;4.606;2022-08-19T21:21:50;23.80;99.90
61339;DHT22;47213;52.362;4.606;2022-08-19T21:26:51;23.70;99.90
61339;DHT22;47213;52.362;4.606;2022-08-19T21:31:50;23.90;99.90
61339;DHT22;47213;52.362;4.606;2022-08-19T21:36:51;23.80;99.90
61339;DHT22;47213;52.362;4.606;2022-08-19T21:46:51;23.70;99.90
61339;DHT22;47213;52.362;4.606;2022-08-19T21:51:51;23.80;99.90
61339;DHT22;47213;52.362;4.606;2022-08-19T21:56:51;23.70;99.90
61339;DHT22;47213;52.362;4.606;2022-08-19T22:06:51;23.60;99.90
61339;DHT22;47213;52.362;4.606;2022-08-19T22:16:51;23.40;99.90
61339;DHT22;47213;52.362;4.606;2022-08-19T22:21:51;23.50;99.90
61339;DHT22;47213;52.362;4.606;2022-08-19T22:36:51;23.40;99.90
61339;DHT22;47213;52.362;4.606;2022-08-19T22:41:51;23.50;99.90
61339;DHT22;47213;52.362;4.606;2022-08-19T22:46:51;23.40;99.90
61339;DHT22;47213;52.362;4.606;2022-08-19T22:51:51;23.50;99.90
61339;DHT22;47213;52.362;4.606;2022-08-19T22:56:51;23.40;99.90
61339;DHT22;47213;52.362;4.606;2022-08-19T23:06:51;23.30;99.80
61339;DHT22;47213;52.362;4.606;2022-08-19T23:11:51;23.40;97.80
61339;DHT22;47213;52.362;4.606;2022-08-19T23:16:51;23.10;97.70
61339;DHT22;47213;52.362;4.606;2022-08-19T23:21:51;23.20;97.70
61339;DHT22;47213;52.362;4.606;2022-08-19T23:26:51;23.30;97.10
61339;DHT22;47213;52.362;4.606;2022-08-19T23:31:51;23.20;95.90
61339;DHT22;47213;52.362;4.606;2022-08-19T23:36:51;23.10;93.80
61339;DHT22;47213;52.362;4.606;2022-08-19T23:51:52;23.20;91.70
61339;DHT22;47213;52.362;4.606;2022-08-19T23:56:51;23.10;91.50
